Impacts METAR Board
IDs:

KBMQ - Burnet Muni, TX, US

Updated at: 1800 UTC 16 Oct 2021
Potential Impact None Slight Moderate High
Time 16/06Z 16/07Z 16/08Z 16/09Z 16/10Z 16/11Z 16/12Z 16/13Z 16/14Z 16/15Z 16/16Z 16/17Z 16/18Z
Temp60 58 57 55 53 52 51 52 57 63 65 66 68
Dewpt44 43 42 42 41 41 41 41 41 41 37 36 35
Altim30.29 30.30 30.31 30.31 30.32 30.34 30.36 30.37 30.39 30.41 30.42 30.42 30.40
VIS10 10 10 10 10 10 10 10 10 10 10 10 10
CIG-- -- -- -- -- -- -- -- -- -- -- -- --
CoverCLRCLRCLRCLRCLRCLRCLRCLRCLRCLRCLRCLRCLR
FltCatVFRVFRVFRVFRVFRVFRVFRVFRVFRVFRVFRVFRVFR
WX--------------------------
WDir1010360360360200102030404020
WSpd6 6 5 5 5 3 0 5 6 8 11 10 12
WGst-- -- -- -- -- -- -- -- -- -- 19 20 19
Raw hourly METARs
KBMQ 160553Z AUTO 01006KT 10SM CLR 16/07 A3029 RMK AO2 SLP243 T01560067 10222 20156 402830156 51025 $
KBMQ 160653Z AUTO 01006KT 10SM CLR 14/06 A3030 RMK AO2 SLP249 T01440061 $
KBMQ 160753Z AUTO 36005KT 10SM CLR 14/06 A3031 RMK AO2 SLP252 T01390056 $
KBMQ 160853Z AUTO 36005KT 10SM CLR 13/06 A3031 RMK AO2 SLP253 T01280056 50007 $
KBMQ 160953Z AUTO 36005KT 10SM CLR 12/05 A3032 RMK AO2 SLP256 T01170050 $
KBMQ 161053Z AUTO 02003KT 10SM CLR 11/05 A3034 RMK AO2 SLP263 T01110050 $
KBMQ 161153Z AUTO 00000KT 10SM CLR 11/05 A3036 RMK AO2 SLP271 T01060050 10156 20106 53015 $
KBMQ 161253Z AUTO 01005KT 10SM CLR 11/05 A3037 RMK AO2 SLP277 T01110050 $
KBMQ 161353Z AUTO 02006KT 10SM CLR 14/05 A3039 RMK AO2 SLP282 T01390050 $
KBMQ 161453Z AUTO 03008KT 10SM CLR 17/05 A3041 RMK AO2 SLP289 T01720050 53018 $
KBMQ 161553Z AUTO 04011G19KT 10SM CLR 18/03 A3042 RMK AO2 SLP293 T01830028 $
KBMQ 161653Z AUTO 04010G20KT 10SM CLR 19/02 A3042 RMK AO2 SLP291 T01890022 $
KBMQ 161753Z AUTO 02012G19KT 10SM CLR 20/02 A3040 RMK AO2 SLP286 T02000017 10206 20106 58003 $